Time Latitude Longitude Accuracy (66% radius in meters) Altitude (meters) Speed (km/hour) Bearing (degrees) Battery (%) GPS flag
09:53:19 56.387564 43.737394 5 90.559 0.47303640842438 258.48400878906 85 0 delete
09:53:07 56.387564 43.737394 5 90.559 0.47303640842438 258.48400878906 85 0 delete
09:52:57 56.387564 43.737394 5 90.559 0.47303640842438 258.48400878906 85 0 delete
09:52:46 56.387564 43.737394 5 90.559 0.47303640842438 258.48400878906 85 0 delete
09:52:35 56.387564 43.737394 5 90.559 0.47303640842438 258.48400878906 85 0 delete
09:52:23 56.387564 43.737394 5 90.559 0.47303640842438 258.48400878906 85 0 delete
09:52:12 56.387564 43.737394 5 90.559 0.47303640842438 258.48400878906 85 0 delete
09:52:00 56.387564 43.737394 5 90.559 0.47303640842438 258.48400878906 85 0 delete
09:51:48 56.387564 43.737394 5 90.559 0.47303640842438 258.48400878906 85 0 delete
09:51:37 56.387564 43.737394 5 90.559 0.47303640842438 258.48400878906 85 0 delete
09:51:25 56.387564 43.737394 5 90.559 0.47303640842438 258.48400878906 85 0 delete
09:51:13 56.387564 43.737394 5 90.559 0.47303640842438 258.48400878906 85 0 delete
09:51:02 56.387564 43.737394 5 90.559 0.47303640842438 258.48400878906 85 0 delete
09:50:50 56.387564 43.737394 5 90.559 0.47303640842438 258.48400878906 85 0 delete
09:50:39 56.387564 43.737394 5 90.559 0.47303640842438 258.48400878906 85 0 delete
09:50:27 56.387564 43.737394 5 90.559 0.47303640842438 258.48400878906 85 0 delete
09:50:16 56.387564 43.737394 5 90.559 0.47303640842438 258.48400878906 85 0 delete
09:50:04 56.387564 43.737394 5 90.559 0.47303640842438 258.48400878906 85 0 delete
09:49:52 56.387564 43.737394 5 90.559 0.47303640842438 258.48400878906 85 0 delete
09:49:41 56.387564 43.737394 5 90.559 0.47303640842438 258.48400878906 85 0 delete
09:49:30 56.387564 43.737394 5 90.559 0.47303640842438 258.48400878906 85 0 delete
09:49:18 56.387564 43.737394 5 90.559 0.47303640842438 258.48400878906 85 0 delete
09:49:07 56.387564 43.737394 5 90.559 0.47303640842438 258.48400878906 85 0 delete
09:48:55 56.387564 43.737394 5 90.559 0.47303640842438 258.48400878906 85 0 delete
09:48:44 56.387564 43.737394 5 90.559 0.47303640842438 258.48400878906 85 0 delete
08:48:25 56.387536 43.737405 5 81.61 0.4432145357132 219.03300476074 85 1 delete
08:48:20 56.387532 43.737368 14.483811378479 80.839 0.31158703565598 241.4049987793 85 1 delete
08:48:11 56.387564 43.737394 5 90.559 0.47303640842438 258.48400878906 85 1 delete
08:48:09 56.387544 43.737339 5 91.86 0.11774493008852 66.504997253418 85 1 delete
08:48:01 56.387493 43.737294 5 88.48 0.31518620252609 87.764999389648 85 1 delete
08:47:55 56.387505 43.737293 10.282633781433 88.153 0.3182712495327 160.99899291992 85 1 delete
08:47:46 56.387505 43.737293 5.8948273658752 88.153 0.28433600068092 181.99499511719 85 1 delete
08:47:34 56.387530 43.737320 5.1728024482727 87.305 0.19075706601143 211.3869934082 85 1 delete
08:47:25 56.387580 43.737359 5.6491537094116 86.091 0.59540885686874 155.20399475098 85 1 delete
08:47:23 56.387622 43.737369 5.8351807594299 85.585 1.7348096370697 181.87399291992 85 1 delete
08:47:11 56.387674 43.737385 6.6594300270081 87.465 0 311.11999511719 85 1 delete
08:47:00 56.387673 43.737367 6.7854423522949 87.345 0.29976111650467 98.100997924805 85 1 delete
08:46:48 56.387680 43.737321 8.253173828125 85.779 0.20978134870529 98.100997924805 85 1 delete
08:46:37 56.387680 43.737321 5.3344430923462 85.779 0.27456676959991 98.100997924805 85 1 delete
08:46:36 56.387680 43.737321 5.2375640869141 85.779 0.50799995660782 98.100997924805 85 1 delete
08:46:25 56.387689 43.737193 4.965603351593 85.737 0.87923073768616 98.100997924805 85 1 delete
08:46:22 56.387692 43.737154 5.4127988815308 85.737 0.46069633960724 93.533996582031 85 1 delete
08:46:14 56.387695 43.737112 7.4984526634216 85.737 0.31878539919853 211.35800170898 85 1 delete
08:46:03 56.387695 43.737112 5.8665151596069 85.737 0 91.362998962402 85 1 delete
08:45:51 56.387695 43.737112 4.6099214553833 85.737 0 91.362998962402 85 1 delete
08:45:41 56.387701 43.736991 3.4918699264526 86.36 3.8069145679474 98.100997924805 85 1 delete
08:45:39 56.387715 43.736875 3.6124496459961 86.202 3.5806798934937 107.1490020752 85 1 delete
08:45:38 56.387727 43.736829 3.5441937446594 86.603 3.4002060890198 107.63200378418 85 1 delete
08:45:35 56.387774 43.736682 3.545939207077 85.807 3.4063763618469 124.27500152588 85 1 delete
08:45:32 56.387818 43.736528 3.6672942638397 84.037 3.1570036411285 116.83100128174 85 1 delete